16/05/05 - 21h:45mDenunciar

Dassault Mirage III RS

Devolta às origens...



Imagem de Andreas Zeitler - Flying Wings, retirada do site Airliners.net.





METAR SBPB 170000Z 12004KT 9999 SCT017 OVC080 26/26 Q1010=

Comentários (0)

Fotos postadas a mais de 15 dias não podem receber comentários.